Airfield :
LOGIN :

Register | Disclaimer

   EN    FR    IT 

 










Legend :    VFR   Marginal VFR   IFR   Intensive IFR   Very Intensive IFR
Visi :
Ceiling :
>= 8 km
>= 3000ft
5 to 8 km
1000 to 3000 ft
1500m to 5 km
500 to 1000 ft
800 to 1500m
200 to 500 ft
< 800m
< 200 ft
Symbols :   Thunderstorms  Fog  Heavy snow  Heavy precipitations  Wind > 20 kt
SIGMETs :     Misc.  Thunderstorms  Icing  Turbulence  Mountain Waves  Volcanic Ashes






- Airport Elevation : 685 ft
- IATA code : VKO


UUWW - Vnukovo International

CURRENT METAR :
  • 260400Z 25002MPS 9999 OVC040 M01/M05 Q1019 R24/190050 NOSIG

EXPIRED METARs :
  • 260330Z 26002MPS 9999 OVC039 M00/M04 Q1019 R24/190050 NOSIG
  • 260300Z 28002MPS 9999 OVC040 M00/M04 Q1019 R24/190050 NOSIG
  • 260230Z 28003MPS 9999 OVC040 M00/M04 Q1019 R24/190050 NOSIG
  • 260200Z 27003MPS 9999 OVC041 M00/M04 Q1019 R24/190050 NOSIG
  • 260130Z 27002MPS 9999 OVC041 M00/M04 Q1019 R24/190050 NOSIG

TAF TAF UUWW
Valid from the 26 at 03:00 until the 27 at 03:00 UTC


260157Z 2603/2703 19005MPS 6000 FEW004 BKN016 TX01/2623Z TNM02/2606Z
TEMPO 2603/2609 -SN OVC004
PROB40
TEMPO 2603/2606 0300 FZFG OVC001
TEMPO 2609/2615 1500 SN -FZDZ OVC003
BECMG 2615/2617 OVC004
TEMPO 2617/2703 25005G12MPS 2100 -SNRA BR OVC002



MET'MAP, your aeronautical weather chart ! - Copyright ORBIFLY December 2007 - Disclaimer

ORBIFLY MET'MAP TEAM :

Programming & Development : Alexandra Zaïnal
Concept & original design : Baudouin d'Aumeries
Assistance for programming : Marc-Olivier Méhu
Technical & hardware support : Manuel Goepfert

Contact : metmap@orbifly.com




SOURCES & CREDITS :

   NOAA